Time;durP1;ratioP1;P1;durP2;ratioP2;P2;SDS_P1;SDS_P2;PMS_P1;PMS_P2;Temp;Humidity;BMP_temperature;BMP_pressure;BME280_temperature;BME280_humidity;BME280_pressure;Samples;Min_cycle;Max_cycle;Signal;HPM_P1;HPM_P2
2024/01/19 00:00:50;;;;;;;8.93;2.63;;;0.50;99.90;;;;;;5028602;28;20068;-66
2024/01/19 00:03:15;;;;;;;8.30;3.15;;;0.60;99.90;;;;;;5028303;28;20041;-66
2024/01/19 00:05:41;;;;;;;7.68;2.95;;;0.60;99.90;;;;;;5028435;28;20397;-66
2024/01/19 00:08:07;;;;;;;4.25;2.70;;;0.70;99.90;;;;;;5029433;28;20060;-66
2024/01/19 00:10:33;;;;;;;11.25;3.40;;;0.60;99.90;;;;;;5028117;28;20457;-66
2024/01/19 00:12:59;;;;;;;9.77;2.80;;;0.70;99.90;;;;;;5028341;28;20068;-66
2024/01/19 00:15:25;;;;;;;5.13;2.95;;;0.70;99.90;;;;;;5029282;28;20144;-66
2024/01/19 00:17:50;;;;;;;6.90;3.67;;;0.70;99.90;;;;;;5027818;28;20089;-66
2024/01/19 00:20:16;;;;;;;5.55;2.70;;;0.70;99.90;;;;;;5028988;28;20092;-66
2024/01/19 00:22:43;;;;;;;6.55;3.28;;;0.70;99.90;;;;;;5027692;28;20053;-66
2024/01/19 00:25:09;;;;;;;5.85;2.40;;;0.60;99.90;;;;;;5026988;28;20126;-66
2024/01/19 00:27:34;;;;;;;7.00;2.95;;;0.60;99.90;;;;;;5026896;28;20478;-66
2024/01/19 00:30:00;;;;;;;8.07;2.85;;;0.70;99.90;;;;;;5028611;28;20052;-66
2024/01/19 00:32:26;;;;;;;10.02;3.67;;;0.70;99.90;;;;;;5027234;28;20187;-66
2024/01/19 00:34:52;;;;;;;9.50;3.65;;;0.60;99.90;;;;;;5028889;28;20730;-66
2024/01/19 00:37:17;;;;;;;9.77;3.53;;;0.70;99.90;;;;;;5028514;28;20060;-66
2024/01/19 00:39:43;;;;;;;8.23;3.60;;;0.60;99.90;;;;;;5028450;28;20030;-66
2024/01/19 00:42:09;;;;;;;7.72;3.70;;;0.60;99.90;;;;;;5028772;28;20057;-66
2024/01/19 00:44:34;;;;;;;10.68;3.63;;;0.60;99.90;;;;;;5027418;28;20052;-66
2024/01/19 00:47:00;;;;;;;7.28;3.10;;;0.60;99.90;;;;;;5029013;28;20464;-66
2024/01/19 00:49:26;;;;;;;12.35;3.58;;;0.50;99.90;;;;;;5028402;28;20058;-66
2024/01/19 00:51:52;;;;;;;8.82;4.10;;;0.60;99.90;;;;;;5028988;28;20077;-66
2024/01/19 00:54:17;;;;;;;8.90;3.10;;;0.60;99.90;;;;;;5026976;28;20170;-66
2024/01/19 00:56:43;;;;;;;5.95;3.38;;;0.60;99.90;;;;;;5027146;28;20091;-66
2024/01/19 00:59:09;;;;;;;5.85;3.05;;;0.60;99.90;;;;;;5028786;28;20069;-66
2024/01/19 01:01:34;;;;;;;9.90;3.15;;;0.70;99.90;;;;;;5028487;28;20553;-66
2024/01/19 01:04:02;;;;;;;4.57;2.72;;;0.70;99.90;;;;;;5026882;28;20053;-66
2024/01/19 01:06:28;;;;;;;7.45;3.13;;;0.70;99.90;;;;;;5026606;28;20443;-66
2024/01/19 01:08:53;;;;;;;7.53;2.90;;;0.70;99.90;;;;;;5027185;28;20444;-66
2024/01/19 01:11:20;;;;;;;6.60;3.22;;;0.80;99.90;;;;;;5028088;28;20076;-66
2024/01/19 01:13:47;;;;;;;6.85;3.45;;;0.70;99.90;;;;;;5028239;28;20049;-66
2024/01/19 01:16:13;;;;;;;8.60;3.30;;;0.70;99.90;;;;;;5028179;28;20061;-66
2024/01/19 01:18:39;;;;;;;9.90;3.65;;;0.70;99.90;;;;;;5028215;28;20454;-66
2024/01/19 01:21:06;;;;;;;10.00;3.15;;;0.60;99.90;;;;;;5026540;28;20771;-66
2024/01/19 01:23:32;;;;;;;5.00;3.08;;;0.60;99.90;;;;;;5028203;28;20121;-66
2024/01/19 01:25:57;;;;;;;9.90;2.88;;;0.60;99.90;;;;;;5026935;28;20557;-66
2024/01/19 01:28:23;;;;;;;8.38;3.20;;;0.60;99.90;;;;;;5026595;28;20133;-66
2024/01/19 01:30:48;;;;;;;7.72;3.00;;;0.50;99.90;;;;;;5026928;28;20041;-66
2024/01/19 01:33:14;;;;;;;7.88;3.75;;;0.60;99.90;;;;;;5028089;28;20378;-66
2024/01/19 01:35:40;;;;;;;6.32;3.47;;;0.60;99.90;;;;;;5027206;28;20061;-66
2024/01/19 01:38:06;;;;;;;6.47;3.75;;;0.50;99.90;;;;;;5030066;28;20362;-66
2024/01/19 01:40:32;;;;;;;8.18;3.75;;;0.50;99.90;;;;;;5031362;28;20152;-66
2024/01/19 01:43:01;;;;;;;7.45;3.70;;;0.50;99.90;;;;;;5031090;28;20041;-66
2024/01/19 01:45:27;;;;;;;6.47;3.22;;;0.50;99.90;;;;;;5031530;28;20147;-66
2024/01/19 01:47:53;;;;;;;4.97;3.53;;;0.60;99.90;;;;;;5031437;28;20128;-66
2024/01/19 01:50:19;;;;;;;4.95;2.53;;;0.60;99.90;;;;;;5031152;28;20153;-66
2024/01/19 01:52:45;;;;;;;6.45;3.28;;;0.40;99.90;;;;;;5029899;28;20045;-66
2024/01/19 01:55:12;;;;;;;7.25;3.17;;;0.40;99.90;;;;;;5031402;28;20063;-66
2024/01/19 01:57:42;;;;;;;3.40;2.50;;;0.50;99.90;;;;;;5013539;28;20041;-66
2024/01/19 02:00:09;;;;;;;5.05;2.78;;;0.50;99.90;;;;;;5031343;28;20060;-66
2024/01/19 02:02:37;;;;;;;9.15;3.33;;;0.50;99.90;;;;;;5031081;28;20386;-66
2024/01/19 02:05:03;;;;;;;8.23;3.35;;;0.50;99.90;;;;;;5031301;28;20057;-66
2024/01/19 02:07:29;;;;;;;9.18;3.33;;;0.40;99.90;;;;;;5031051;28;20398;-66
2024/01/19 02:09:55;;;;;;;9.32;3.08;;;0.50;99.90;;;;;;5029720;28;20052;-66
2024/01/19 02:12:22;;;;;;;8.15;3.58;;;0.60;99.90;;;;;;5031319;28;20041;-66
2024/01/19 02:14:48;;;;;;;5.93;2.47;;;0.50;99.90;;;;;;5031405;28;20041;-66
2024/01/19 02:17:13;;;;;;;7.97;3.15;;;0.50;99.90;;;;;;5031255;28;20038;-66
2024/01/19 02:19:39;;;;;;;6.00;3.30;;;0.50;99.90;;;;;;5031294;28;20570;-66
2024/01/19 02:22:05;;;;;;;10.57;3.45;;;0.60;99.90;;;;;;5031091;28;20060;-66
2024/01/19 02:24:35;;;;;;;6.57;2.88;;;0.50;99.90;;;;;;5029620;28;20041;-66
2024/01/19 02:27:02;;;;;;;6.88;2.92;;;0.40;99.90;;;;;;5030769;28;20401;-67
2024/01/19 02:29:28;;;;;;;7.35;3.10;;;0.40;99.90;;;;;;5029425;28;20555;-67
2024/01/19 02:31:54;;;;;;;6.25;2.97;;;0.30;99.90;;;;;;5031005;28;20053;-66
2024/01/19 02:34:19;;;;;;;10.55;3.10;;;0.40;99.90;;;;;;5029340;28;20349;-67
2024/01/19 02:36:45;;;;;;;8.13;3.47;;;0.40;99.90;;;;;;5030803;28;20038;-67
2024/01/19 02:39:11;;;;;;;4.40;3.15;;;0.40;99.90;;;;;;5030748;28;20068;-66
2024/01/19 02:41:36;;;;;;;5.18;3.00;;;0.30;99.90;;;;;;5030579;28;20044;-66
2024/01/19 02:44:02;;;;;;;4.47;3.00;;;0.30;99.90;;;;;;5029308;28;20056;-66
2024/01/19 02:46:28;;;;;;;7.28;2.53;;;0.20;99.90;;;;;;5028815;28;20129;-66
2024/01/19 02:48:53;;;;;;;5.18;2.63;;;0.20;99.90;;;;;;5028722;28;20121;-67
2024/01/19 02:51:19;;;;;;;4.65;2.53;;;0.20;99.90;;;;;;5030453;28;20132;-66
2024/01/19 02:53:45;;;;;;;3.92;2.58;;;0.10;99.90;;;;;;5030369;28;20048;-67
2024/01/19 02:56:10;;;;;;;5.30;2.88;;;0.10;99.90;;;;;;5032860;22;20045;-66
2024/01/19 02:58:36;;;;;;;5.90;2.85;;;0.10;99.90;;;;;;5010595;28;20074;-66
2024/01/19 03:01:02;;;;;;;5.57;2.85;;;0.10;99.90;;;;;;5009402;28;20065;-66
2024/01/19 03:03:28;;;;;;;7.00;2.83;;;0.20;99.90;;;;;;5025891;28;20465;-66
2024/01/19 03:05:54;;;;;;;9.32;3.42;;;0.20;99.90;;;;;;5025998;28;20045;-66
2024/01/19 03:08:21;;;;;;;5.32;2.50;;;0.40;99.90;;;;;;5010533;28;20565;-66
2024/01/19 03:10:47;;;;;;;5.80;2.83;;;0.50;99.90;;;;;;5009122;28;20058;-66
2024/01/19 03:13:12;;;;;;;4.28;2.90;;;0.50;99.90;;;;;;5010638;28;20409;-67
2024/01/19 03:15:38;;;;;;;4.95;2.53;;;0.60;99.90;;;;;;5010422;28;20054;-66
2024/01/19 03:18:04;;;;;;;10.18;3.10;;;0.60;99.90;;;;;;5010128;28;20033;-67
2024/01/19 03:20:29;;;;;;;7.95;2.63;;;0.60;99.90;;;;;;5010841;28;20073;-66
2024/01/19 03:22:55;;;;;;;3.83;2.30;;;0.60;99.90;;;;;;5010227;28;20038;-66
2024/01/19 03:25:21;;;;;;;5.22;2.30;;;0.70;99.90;;;;;;5025238;28;20057;-66
2024/01/19 03:27:46;;;;;;;10.30;2.65;;;0.60;99.90;;;;;;4992213;28;20053;-67
2024/01/19 03:30:12;;;;;;;8.25;2.50;;;0.70;99.90;;;;;;5010197;28;20053;-67
2024/01/19 03:32:38;;;;;;;7.22;2.70;;;0.70;99.90;;;;;;5009953;28;20050;-66
2024/01/19 03:35:04;;;;;;;3.58;2.33;;;0.60;99.90;;;;;;5009809;28;20451;-67
2024/01/19 03:37:30;;;;;;;5.78;2.70;;;0.70;99.90;;;;;;5010196;28;20049;-67
2024/01/19 03:39:55;;;;;;;5.07;2.67;;;0.70;99.90;;;;;;5010150;28;20060;-67
2024/01/19 03:42:21;;;;;;;3.97;2.35;;;0.70;99.90;;;;;;5009846;28;20371;-66
2024/01/19 03:44:47;;;;;;;3.92;2.15;;;0.70;99.90;;;;;;5009783;28;20053;-66
2024/01/19 03:47:12;;;;;;;5.28;2.22;;;0.70;99.90;;;;;;5010036;28;20046;-66
2024/01/19 03:49:39;;;;;;;5.70;2.50;;;0.80;99.90;;;;;;5008595;28;20081;-66
2024/01/19 03:52:07;;;;;;;3.47;1.88;;;0.80;99.90;;;;;;5009719;28;20073;-67
2024/01/19 03:54:33;;;;;;;3.97;2.03;;;0.80;99.90;;;;;;5009739;28;20441;-66
2024/01/19 03:57:02;;;;;;;8.20;2.25;;;0.80;99.90;;;;;;5009292;28;20367;-66
2024/01/19 03:59:29;;;;;;;4.40;2.17;;;0.80;99.90;;;;;;4991499;28;20058;-67
2024/01/19 04:01:55;;;;;;;8.25;2.10;;;0.90;99.90;;;;;;5007803;28;20052;-66
2024/01/19 04:04:22;;;;;;;4.47;2.10;;;0.90;99.90;;;;;;5009333;28;20131;-66
2024/01/19 04:06:48;;;;;;;7.60;1.90;;;0.90;99.90;;;;;;5009623;28;20042;-66
2024/01/19 04:09:16;;;;;;;5.88;2.33;;;0.90;99.90;;;;;;5008285;28;20100;-66
2024/01/19 04:11:43;;;;;;;3.40;1.70;;;0.90;99.90;;;;;;5009706;28;20124;-66
2024/01/19 04:14:10;;;;;;;3.80;2.17;;;0.90;99.90;;;;;;5008466;28;20057;-67
2024/01/19 04:16:36;;;;;;;5.43;1.63;;;0.90;99.90;;;;;;5007460;28;20049;-67
2024/01/19 04:19:03;;;;;;;2.40;1.77;;;0.90;99.90;;;;;;5009216;28;20104;-66
2024/01/19 04:21:30;;;;;;;5.07;2.00;;;0.90;99.90;;;;;;5007598;28;20128;-66
2024/01/19 04:23:56;;;;;;;2.92;1.52;;;0.90;99.90;;;;;;5007632;28;20528;-66
2024/01/19 04:26:21;;;;;;;2.20;1.83;;;0.90;99.90;;;;;;5007683;28;20065;-65
2024/01/19 04:28:47;;;;;;;3.22;1.52;;;0.90;99.90;;;;;;5007567;28;20059;-65
2024/01/19 04:31:13;;;;;;;5.85;1.63;;;0.90;99.90;;;;;;5023774;28;20048;-66
2024/01/19 04:33:38;;;;;;;7.28;2.50;;;0.90;99.90;;;;;;5023908;28;20050;-66
2024/01/19 04:36:05;;;;;;;10.38;2.55;;;0.90;99.90;;;;;;5009210;28;20057;-66
2024/01/19 04:38:31;;;;;;;5.32;1.58;;;0.80;99.90;;;;;;5008671;28;20125;-66
2024/01/19 04:40:57;;;;;;;3.90;2.10;;;0.70;99.90;;;;;;5023843;28;20121;-66
2024/01/19 04:43:23;;;;;;;17.10;2.75;;;0.70;99.90;;;;;;5008770;28;20474;-66
2024/01/19 04:45:48;;;;;;;5.07;2.13;;;0.70;99.90;;;;;;5008572;28;20092;-66
2024/01/19 04:48:14;;;;;;;3.72;1.45;;;0.80;99.90;;;;;;5007227;28;20381;-66
2024/01/19 04:50:40;;;;;;;3.97;1.42;;;0.80;99.90;;;;;;5008934;28;20060;-66
2024/01/19 04:53:05;;;;;;;3.13;1.80;;;0.80;99.90;;;;;;5008869;28;20041;-67
2024/01/19 04:55:31;;;;;;;3.17;1.52;;;0.70;99.90;;;;;;5007027;28;20417;-67
2024/01/19 04:57:57;;;;;;;2.90;1.40;;;0.70;99.90;;;;;;5008584;28;20053;-67
2024/01/19 05:00:23;;;;;;;2.58;1.65;;;0.70;99.90;;;;;;4991017;28;20054;-67
2024/01/19 05:02:49;;;;;;;9.85;1.80;;;0.70;99.90;;;;;;5007316;28;20577;-67
2024/01/19 05:05:16;;;;;;;2.92;1.27;;;0.70;99.90;;;;;;4992712;28;20077;-66
2024/01/19 05:07:42;;;;;;;1.83;1.70;;;0.60;99.90;;;;;;5010774;28;20147;-65
2024/01/19 05:10:09;;;;;;;3.17;1.50;;;0.60;99.90;;;;;;5045735;28;20122;-66
2024/01/19 05:12:34;;;;;;;5.63;1.65;;;0.60;99.90;;;;;;5047888;28;20119;-66
2024/01/19 05:15:00;;;;;;;4.15;1.58;;;0.60;99.90;;;;;;5014592;28;20057;-66
2024/01/19 05:17:26;;;;;;;3.20;1.50;;;0.60;99.90;;;;;;5048018;28;20037;-66
2024/01/19 05:19:52;;;;;;;2.03;1.92;;;0.60;99.90;;;;;;5032919;28;20051;-66
2024/01/19 05:22:17;;;;;;;4.68;2.00;;;0.60;99.90;;;;;;5032585;28;20132;-66
2024/01/19 05:24:44;;;;;;;8.40;2.05;;;0.50;99.90;;;;;;5032455;28;20037;-67
2024/01/19 05:27:10;;;;;;;2.35;1.85;;;0.50;99.90;;;;;;5032572;28;20047;-66
2024/01/19 05:29:36;;;;;;;3.83;2.28;;;0.50;99.90;;;;;;5032508;28;20060;-66
2024/01/19 05:32:02;;;;;;;2.30;2.10;;;0.60;99.90;;;;;;5032560;28;20033;-67
2024/01/19 05:34:28;;;;;;;3.90;1.98;;;0.60;99.90;;;;;;5047482;28;20063;-67
2024/01/19 05:36:54;;;;;;;4.07;2.50;;;0.60;99.90;;;;;;5047374;28;20037;-66
2024/01/19 05:39:19;;;;;;;3.13;2.20;;;0.60;99.90;;;;;;5032024;28;20128;-65
2024/01/19 05:41:45;;;;;;;4.72;2.70;;;0.60;99.90;;;;;;5047228;28;20083;-66
2024/01/19 05:44:11;;;;;;;2.05;1.92;;;0.60;99.90;;;;;;5046812;28;20041;-66
2024/01/19 05:46:37;;;;;;;2.20;2.00;;;0.60;99.90;;;;;;5047077;28;20045;-66
2024/01/19 05:49:03;;;;;;;5.30;2.05;;;0.70;99.90;;;;;;5032396;28;20120;-67
2024/01/19 05:51:28;;;;;;;5.57;2.15;;;0.70;99.90;;;;;;5046955;28;20103;-66
2024/01/19 05:53:54;;;;;;;3.72;1.92;;;0.70;99.90;;;;;;5046908;28;20041;-67
2024/01/19 05:56:20;;;;;;;2.55;1.83;;;0.70;99.90;;;;;;5046680;28;20145;-66
2024/01/19 05:58:45;;;;;;;3.63;2.63;;;0.70;99.90;;;;;;5046501;28;20084;-67
2024/01/19 06:01:11;;;;;;;2.50;2.08;;;0.70;99.90;;;;;;5031470;28;20557;-66
2024/01/19 06:03:37;;;;;;;2.88;2.10;;;0.70;99.90;;;;;;5031879;28;20049;-67
2024/01/19 06:06:04;;;;;;;3.05;1.98;;;0.70;99.90;;;;;;5046837;28;20050;-67
2024/01/19 06:08:30;;;;;;;3.85;2.60;;;0.70;99.90;;;;;;5031483;28;20276;-65
2024/01/19 06:10:57;;;;;;;3.58;2.10;;;0.70;99.90;;;;;;5046782;28;20122;-66
2024/01/19 06:13:23;;;;;;;2.33;2.03;;;0.60;99.90;;;;;;5031483;28;20171;-66
2024/01/19 06:15:49;;;;;;;10.15;2.35;;;0.60;99.90;;;;;;5046665;28;20041;-66
2024/01/19 06:18:14;;;;;;;2.33;2.05;;;0.60;99.90;;;;;;4997318;28;20076;-66
2024/01/19 06:20:43;;;;;;;5.10;1.63;;;0.60;99.90;;;;;;5029822;28;20068;-66
2024/01/19 06:23:12;;;;;;;3.80;2.10;;;0.70;99.90;;;;;;5030929;28;20037;-66
2024/01/19 06:25:39;;;;;;;4.45;1.98;;;0.70;99.90;;;;;;5041088;28;20046;-66
2024/01/19 06:28:06;;;;;;;6.95;2.15;;;0.60;99.90;;;;;;5010831;28;20827;-66
2024/01/19 06:30:32;;;;;;;4.03;1.70;;;0.60;99.90;;;;;;5026180;28;20054;-66
2024/01/19 06:32:57;;;;;;;3.28;1.98;;;0.60;99.90;;;;;;5026618;28;20128;-66
2024/01/19 06:35:23;;;;;;;5.13;2.00;;;0.60;99.90;;;;;;5010025;28;20545;-66
2024/01/19 06:37:49;;;;;;;4.75;2.08;;;0.60;99.90;;;;;;5011260;28;20394;-66
2024/01/19 06:40:15;;;;;;;2.60;1.80;;;0.60;99.90;;;;;;5011347;28;20042;-66
2024/01/19 06:42:44;;;;;;;9.23;2.40;;;0.60;99.90;;;;;;5011316;28;20042;-67
2024/01/19 06:45:10;;;;;;;1.80;1.60;;;0.60;99.90;;;;;;5009940;28;20050;-67
2024/01/19 06:47:36;;;;;;;2.10;1.92;;;0.60;99.90;;;;;;5025549;28;20140;-67
2024/01/19 06:50:03;;;;;;;3.70;1.58;;;0.60;99.90;;;;;;5010988;28;20228;-66
2024/01/19 06:52:29;;;;;;;3.75;1.83;;;0.60;99.90;;;;;;5025685;28;20065;-66
2024/01/19 06:54:54;;;;;;;4.38;1.52;;;0.70;99.90;;;;;;5010713;28;20034;-67
2024/01/19 06:57:20;;;;;;;5.88;2.08;;;0.60;99.90;;;;;;5025339;28;20115;-67
2024/01/19 06:59:46;;;;;;;3.55;2.35;;;0.60;99.90;;;;;;5010625;28;20046;-66
2024/01/19 07:02:12;;;;;;;2.55;2.00;;;0.60;99.90;;;;;;5011329;28;20041;-66
2024/01/19 07:04:37;;;;;;;3.72;1.80;;;0.50;99.90;;;;;;5010896;28;20133;-66
2024/01/19 07:07:03;;;;;;;5.95;1.92;;;0.60;99.90;;;;;;5011114;28;20046;-66
2024/01/19 07:09:29;;;;;;;2.60;1.67;;;0.80;99.90;;;;;;5009278;28;20042;-66
2024/01/19 07:11:55;;;;;;;6.13;2.40;;;0.70;99.90;;;;;;5010626;28;20054;-66
2024/01/19 07:14:21;;;;;;;7.25;2.00;;;0.80;99.90;;;;;;5009588;28;20029;-66
2024/01/19 07:16:47;;;;;;;5.90;2.88;;;0.80;99.90;;;;;;5025218;28;20048;-66
2024/01/19 07:19:12;;;;;;;12.25;3.45;;;0.90;99.90;;;;;;5025046;28;20045;-67
2024/01/19 07:21:41;;;;;;;10.30;2.53;;;0.90;99.90;;;;;;5024997;28;20045;-66
2024/01/19 07:24:08;;;;;;;7.70;2.63;;;0.90;99.90;;;;;;5010191;28;20048;-66
2024/01/19 07:26:34;;;;;;;5.47;2.13;;;0.80;99.90;;;;;;5009691;28;20117;-66
2024/01/19 07:29:04;;;;;;;4.47;1.70;;;0.90;99.90;;;;;;5025440;28;20132;-66
2024/01/19 07:31:30;;;;;;;3.92;1.58;;;0.80;99.90;;;;;;5008998;28;20073;-65
2024/01/19 07:33:56;;;;;;;3.17;1.85;;;0.80;99.90;;;;;;5024981;28;20474;-65
2024/01/19 07:36:22;;;;;;;5.88;1.88;;;0.70;99.90;;;;;;5025358;28;20053;-65
2024/01/19 07:38:48;;;;;;;5.20;2.10;;;0.80;99.90;;;;;;5009251;28;20042;-65
2024/01/19 07:41:14;;;;;;;3.35;2.15;;;0.80;99.90;;;;;;5010028;28;20068;-65
2024/01/19 07:43:39;;;;;;;3.40;1.75;;;0.80;99.90;;;;;;5010333;28;20046;-66
2024/01/19 07:46:05;;;;;;;6.43;1.73;;;0.80;99.90;;;;;;5010573;28;20041;-66
2024/01/19 07:48:31;;;;;;;3.08;1.75;;;0.70;99.90;;;;;;5010477;28;20042;-66
2024/01/19 07:50:57;;;;;;;4.03;1.85;;;0.70;99.90;;;;;;5010442;28;20046;-66
2024/01/19 07:53:22;;;;;;;5.10;1.90;;;0.70;99.90;;;;;;5024977;28;20057;-67
2024/01/19 07:55:48;;;;;;;4.93;1.80;;;0.70;99.90;;;;;;5024881;28;20042;-67
2024/01/19 07:58:14;;;;;;;5.32;1.90;;;0.60;99.90;;;;;;5009992;28;20049;-66
2024/01/19 08:00:40;;;;;;;4.10;1.80;;;0.60;99.90;;;;;;5041032;28;20045;-66
2024/01/19 08:03:05;;;;;;;5.70;1.77;;;0.60;99.90;;;;;;5029396;28;20096;-66
2024/01/19 08:05:31;;;;;;;4.85;1.60;;;0.60;99.90;;;;;;5029454;28;20056;-66
2024/01/19 08:07:57;;;;;;;2.63;2.38;;;0.60;99.90;;;;;;5028643;28;20041;-66
2024/01/19 08:10:22;;;;;;;4.93;1.80;;;0.60;99.90;;;;;;5044022;28;20059;-66
2024/01/19 08:12:48;;;;;;;7.82;1.88;;;0.60;99.90;;;;;;5043800;28;20413;-67
2024/01/19 08:15:14;;;;;;;2.30;1.75;;;0.50;99.90;;;;;;5029038;28;20037;-66
2024/01/19 08:17:40;;;;;;;5.93;3.03;;;0.60;99.90;;;;;;5043801;28;20483;-66
2024/01/19 08:20:09;;;;;;;4.25;2.03;;;0.50;99.90;;;;;;5044356;28;20362;-66
2024/01/19 08:22:35;;;;;;;7.35;2.90;;;0.50;99.90;;;;;;5010915;28;20053;-67
2024/01/19 08:25:01;;;;;;;2.15;1.70;;;0.60;99.90;;;;;;5028688;28;20330;-68
2024/01/19 08:27:27;;;;;;;5.20;2.00;;;0.60;99.90;;;;;;5044012;28;20065;-66
2024/01/19 08:29:53;;;;;;;5.00;2.20;;;0.60;99.90;;;;;;5028825;28;20511;-67
2024/01/19 08:32:18;;;;;;;5.63;2.08;;;0.70;99.90;;;;;;5043978;28;20111;-67
2024/01/19 08:34:44;;;;;;;1.85;1.70;;;0.70;99.90;;;;;;5043966;28;20084;-67
2024/01/19 08:37:10;;;;;;;3.85;2.08;;;0.70;99.90;;;;;;5043643;28;20049;-67
2024/01/19 08:39:37;;;;;;;3.33;2.10;;;0.70;99.90;;;;;;5011515;28;20034;-67
2024/01/19 08:42:05;;;;;;;4.65;2.05;;;0.80;99.90;;;;;;5023285;28;20553;-66
2024/01/19 08:44:31;;;;;;;8.10;2.40;;;0.70;99.90;;;;;;5022083;28;20088;-66
2024/01/19 08:46:57;;;;;;;3.00;1.70;;;0.80;99.90;;;;;;5023258;28;20041;-67
2024/01/19 08:49:24;;;;;;;4.15;1.95;;;0.80;99.90;;;;;;5007980;28;20068;-67
2024/01/19 08:51:51;;;;;;;3.30;2.50;;;0.80;99.90;;;;;;5008230;28;20484;-67
2024/01/19 08:54:17;;;;;;;3.90;2.00;;;0.80;99.90;;;;;;5007896;28;20045;-67
2024/01/19 08:56:43;;;;;;;4.15;2.25;;;0.70;99.90;;;;;;5008218;28;20060;-67
2024/01/19 08:59:09;;;;;;;3.10;2.10;;;0.70;99.90;;;;;;5008581;28;20351;-66
2024/01/19 09:01:35;;;;;;;4.70;2.55;;;0.70;99.90;;;;;;5008456;28;20506;-66
2024/01/19 09:04:01;;;;;;;3.58;2.20;;;0.80;99.90;;;;;;5008638;28;20057;-67
2024/01/19 09:06:27;;;;;;;5.60;2.30;;;0.70;99.90;;;;;;5023204;28;20049;-66
2024/01/19 09:08:52;;;;;;;7.28;2.30;;;0.80;99.90;;;;;;5008418;28;20148;-66
2024/01/19 09:11:18;;;;;;;5.07;2.25;;;0.80;99.90;;;;;;5008557;28;20606;-68
2024/01/19 09:13:44;;;;;;;2.13;1.92;;;0.80;99.90;;;;;;5024154;28;20045;-66
2024/01/19 09:16:10;;;;;;;7.88;2.60;;;0.80;99.90;;;;;;5023655;28;20502;-67
2024/01/19 09:18:37;;;;;;;5.78;2.20;;;0.80;99.90;;;;;;5023487;28;20042;-66
2024/01/19 09:21:04;;;;;;;5.38;2.55;;;0.80;99.90;;;;;;5023093;28;20042;-66
2024/01/19 09:23:30;;;;;;;5.07;2.70;;;0.90;99.90;;;;;;5023269;28;20058;-66
2024/01/19 09:25:55;;;;;;;4.07;2.38;;;0.90;99.90;;;;;;5023304;28;20387;-67
2024/01/19 09:28:21;;;;;;;5.85;2.67;;;1.00;99.90;;;;;;5006761;28;20049;-68
2024/01/19 09:30:47;;;;;;;5.20;2.58;;;1.00;99.90;;;;;;5023067;28;20051;-67
2024/01/19 09:33:16;;;;;;;2.50;2.00;;;1.00;99.90;;;;;;5023375;28;20050;-67
2024/01/19 09:35:42;;;;;;;5.22;2.50;;;1.00;99.90;;;;;;5008163;28;20335;-67
2024/01/19 09:38:08;;;;;;;6.45;2.50;;;1.10;99.90;;;;;;5008011;28;20042;-67
2024/01/19 09:40:34;;;;;;;5.15;2.53;;;1.10;99.90;;;;;;5008331;28;20670;-67
2024/01/19 09:43:01;;;;;;;4.32;2.20;;;1.10;99.90;;;;;;5008615;28;20107;-67
2024/01/19 09:45:38;;;;;;;9.45;2.53;;;1.20;99.90;;;;;;5023587;28;20092;-67
2024/01/19 09:48:43;;;;;;;5.18;2.47;;;1.20;99.90;;;;;;5008931;28;20104;-66
2024/01/19 09:51:10;;;;;;;5.53;2.80;;;1.20;99.90;;;;;;4971724;28;20422;-67
2024/01/19 09:53:48;;;;;;;5.15;2.50;;;1.20;99.90;;;;;;5008522;28;20069;-67
2024/01/19 09:56:14;;;;;;;7.30;3.08;;;1.20;99.90;;;;;;5008761;28;20061;-67
2024/01/19 09:58:42;;;;;;;7.78;3.95;;;1.20;99.90;;;;;;5010921;28;20050;-64
2024/01/19 10:01:08;;;;;;;8.38;3.78;;;1.30;99.90;;;;;;5026384;28;20049;-66
2024/01/19 10:03:36;;;;;;;6.40;2.65;;;1.30;99.90;;;;;;5032179;28;20045;-66
2024/01/19 10:06:03;;;;;;;8.73;3.28;;;1.30;99.90;;;;;;5027756;28;20366;-66
2024/01/19 10:08:29;;;;;;;10.65;3.13;;;1.40;99.90;;;;;;5015762;28;20121;-66
2024/01/19 10:10:56;;;;;;;5.63;3.03;;;1.30;99.90;;;;;;5043781;28;20052;-66
2024/01/19 10:13:22;;;;;;;6.25;3.00;;;1.40;99.90;;;;;;5026924;28;20572;-66
2024/01/19 10:15:48;;;;;;;9.50;3.28;;;1.40;99.90;;;;;;5026840;28;20104;-66
2024/01/19 10:18:14;;;;;;;3.72;3.10;;;1.50;99.90;;;;;;5036118;28;20042;-67
2024/01/19 10:20:41;;;;;;;8.80;3.25;;;1.50;99.90;;;;;;5027107;28;20530;-66
2024/01/19 10:23:21;;;;;;;7.95;3.40;;;1.50;99.90;;;;;;5012018;28;20046;-66
2024/01/19 10:25:47;;;;;;;7.32;3.47;;;1.60;99.90;;;;;;5027235;28;20111;-66
2024/01/19 10:28:36;;;;;;;4.60;3.42;;;1.60;99.90;;;;;;5010327;28;20037;-64
2024/01/19 10:31:19;;;;;;;8.65;3.35;;;1.70;99.90;;;;;;5012856;28;20053;-65
2024/01/19 10:33:53;;;;;;;6.30;3.25;;;1.70;99.90;;;;;;5027737;28;20578;-64
2024/01/19 10:36:19;;;;;;;5.30;3.15;;;1.70;99.90;;;;;;5012615;28;20090;-64
2024/01/19 10:38:45;;;;;;;7.55;3.35;;;1.70;99.90;;;;;;5032197;28;20060;-65
2024/01/19 10:41:15;;;;;;;8.50;3.60;;;1.80;99.90;;;;;;5027386;28;20038;-64
2024/01/19 10:43:40;;;;;;;8.73;3.47;;;1.80;99.90;;;;;;5009814;28;20121;-64
2024/01/19 10:46:26;;;;;;;3.72;3.03;;;1.80;99.90;;;;;;5013626;28;20124;-65
2024/01/19 10:48:52;;;;;;;7.60;3.83;;;1.80;99.90;;;;;;5003458;28;20125;-65
2024/01/19 10:51:21;;;;;;;7.78;3.17;;;1.90;99.90;;;;;;5011774;28;20488;-65
2024/01/19 10:53:51;;;;;;;11.20;3.90;;;1.90;99.90;;;;;;5030878;28;20098;-65
2024/01/19 10:56:21;;;;;;;10.65;3.58;;;2.00;99.90;;;;;;5045574;28;20481;-65
2024/01/19 10:58:48;;;;;;;14.65;4.10;;;2.00;99.90;;;;;;5030738;28;20140;-65
2024/01/19 11:01:15;;;;;;;5.05;3.50;;;2.00;99.90;;;;;;5030542;28;20237;-66
2024/01/19 11:03:44;;;;;;;8.57;3.42;;;2.10;99.90;;;;;;5030851;28;20045;-66
2024/01/19 11:06:11;;;;;;;10.80;3.55;;;2.10;99.90;;;;;;5028860;28;20053;-66
2024/01/19 11:08:38;;;;;;;6.97;3.53;;;2.10;99.90;;;;;;5010607;28;20049;-65
2024/01/19 11:11:07;;;;;;;12.48;3.72;;;2.10;99.90;;;;;;5009351;28;20034;-65
2024/01/19 11:13:38;;;;;;;12.00;3.10;;;2.10;99.90;;;;;;5025574;28;20490;-66
2024/01/19 11:16:17;;;;;;;5.22;3.45;;;2.20;99.90;;;;;;5025334;28;20049;-66
2024/01/19 11:18:44;;;;;;;9.52;3.45;;;2.20;99.90;;;;;;5009088;28;20049;-66
2024/01/19 11:21:10;;;;;;;8.25;4.30;;;2.20;99.90;;;;;;5010340;28;20561;-66
2024/01/19 11:23:37;;;;;;;4.60;2.60;;;2.20;99.90;;;;;;5025852;28;20068;-66
2024/01/19 11:26:35;;;;;;;9.98;2.78;;;2.20;99.90;;;;;;5010622;28;20081;-65
2024/01/19 11:29:14;;;;;;;9.00;2.80;;;2.20;99.90;;;;;;5000080;28;20054;-67
2024/01/19 11:31:40;;;;;;;9.38;3.45;;;2.30;99.90;;;;;;5005635;28;20050;-67
2024/01/19 11:34:06;;;;;;;8.75;3.10;;;2.40;99.90;;;;;;4989555;28;20046;-67
2024/01/19 11:36:41;;;;;;;7.20;3.50;;;2.40;99.90;;;;;;5005820;28;20108;-67
2024/01/19 11:39:14;;;;;;;10.90;3.08;;;2.40;99.90;;;;;;4990972;28;20391;-68
2024/01/19 11:41:41;;;;;;;10.13;3.13;;;2.40;99.90;;;;;;5003920;28;20045;-67
2024/01/19 11:44:10;;;;;;;10.88;3.42;;;2.40;99.90;;;;;;5024653;28;20046;-67
2024/01/19 11:46:51;;;;;;;6.38;3.25;;;2.50;99.90;;;;;;5006588;28;20425;-67
2024/01/19 11:49:29;;;;;;;10.38;3.38;;;2.50;99.90;;;;;;5007550;28;20082;-67
2024/01/19 11:51:55;;;;;;;14.27;3.17;;;2.50;99.90;;;;;;5007100;28;20129;-67
2024/01/19 11:54:34;;;;;;;7.30;3.00;;;2.60;99.90;;;;;;5008568;28;20065;-67
2024/01/19 11:57:19;;;;;;;10.50;3.65;;;2.60;99.90;;;;;;5019927;28;20061;-67
2024/01/19 11:59:45;;;;;;;6.13;3.22;;;2.60;99.90;;;;;;5020763;28;20111;-67
2024/01/19 12:02:33;;;;;;;4.05;2.75;;;2.60;99.90;;;;;;5024579;28;20188;-67
2024/01/19 12:05:03;;;;;;;7.03;3.35;;;2.70;99.90;;;;;;5008380;28;20034;-67
2024/01/19 12:07:29;;;;;;;9.05;2.72;;;2.70;99.90;;;;;;5025106;28;20287;-67
2024/01/19 12:10:12;;;;;;;12.13;4.15;;;2.80;99.90;;;;;;5010143;28;20552;-67
2024/01/19 12:12:39;;;;;;;10.52;3.92;;;2.80;99.90;;;;;;5009981;28;20398;-68
2024/01/19 12:15:10;;;;;;;9.65;3.15;;;2.80;99.90;;;;;;5005287;28;20879;-68
2024/01/19 12:17:40;;;;;;;7.43;3.00;;;2.80;99.90;;;;;;4990293;28;20057;-67
2024/01/19 12:20:09;;;;;;;11.70;4.10;;;2.90;99.90;;;;;;4989552;28;20097;-68
2024/01/19 12:22:36;;;;;;;12.18;3.40;;;2.90;99.90;;;;;;4992503;28;20455;-68
2024/01/19 12:25:20;;;;;;;7.97;2.95;;;2.90;99.90;;;;;;5023969;28;20130;-67
2024/01/19 12:27:47;;;;;;;11.70;2.70;;;2.90;99.90;;;;;;5003880;28;20038;-66
2024/01/19 12:30:19;;;;;;;7.43;2.45;;;3.00;99.90;;;;;;5007326;28;20454;-66
2024/01/19 12:32:46;;;;;;;6.85;2.88;;;2.90;99.90;;;;;;5006300;28;20034;-66
2024/01/19 12:35:12;;;;;;;14.77;2.63;;;3.00;99.90;;;;;;5008726;28;20041;-67
2024/01/19 12:37:38;;;;;;;8.15;2.72;;;2.90;99.90;;;;;;5008966;28;20077;-66
2024/01/19 12:40:17;;;;;;;6.38;2.10;;;3.00;99.90;;;;;;5009375;28;20054;-67
2024/01/19 12:42:44;;;;;;;8.20;2.63;;;3.00;99.90;;;;;;5005609;28;20514;-68
2024/01/19 12:45:14;;;;;;;13.10;3.13;;;3.00;99.90;;;;;;5023968;28;20111;-68
2024/01/19 12:47:44;;;;;;;11.90;2.70;;;3.00;99.90;;;;;;5007729;28;20172;-68
2024/01/19 12:50:10;;;;;;;10.13;4.13;;;3.00;99.90;;;;;;5009003;28;20053;-68
2024/01/19 12:52:36;;;;;;;8.43;2.35;;;3.10;99.90;;;;;;5023989;28;20389;-68
2024/01/19 12:55:03;;;;;;;13.85;3.38;;;3.10;99.90;;;;;;5009049;28;20410;-68